createdAt,value
2018-04-09T00:02:24.222Z,9.30
2018-04-09T00:04:52.609Z,9.20
2018-04-09T00:07:21.964Z,9.10
2018-04-09T00:09:50.522Z,9.10
2018-04-09T00:12:19.103Z,9.10
2018-04-09T00:14:47.686Z,9.10
2018-04-09T00:17:16.327Z,9.00
2018-04-09T00:19:44.905Z,8.90
2018-04-09T00:22:13.462Z,8.80
2018-04-09T00:24:42.041Z,8.80
2018-04-09T00:27:10.607Z,8.80
2018-04-09T00:29:39.195Z,8.80
2018-04-09T00:32:07.781Z,8.80
2018-04-09T00:34:36.359Z,8.70
2018-04-09T00:37:04.961Z,8.60
2018-04-09T00:39:33.557Z,8.40
2018-04-09T00:42:02.947Z,8.40
2018-04-09T00:44:31.502Z,8.30
2018-04-09T00:47:00.099Z,8.30
2018-04-09T00:49:28.658Z,8.30
2018-04-09T00:51:57.217Z,8.30
2018-04-09T00:54:25.800Z,8.20
2018-04-09T00:56:54.358Z,8.10
2018-04-09T00:59:22.975Z,8.00
2018-04-09T01:01:51.507Z,8.00
2018-04-09T01:04:20.267Z,8.00
2018-04-09T01:06:48.664Z,8.00
2018-04-09T01:09:17.031Z,8.00
2018-04-09T01:11:45.684Z,8.10
2018-04-09T01:14:14.251Z,8.00
2018-04-09T01:16:42.878Z,8.00
2018-04-09T01:19:11.453Z,8.00
2018-04-09T01:21:40.043Z,8.00
2018-04-09T01:24:08.629Z,8.00
2018-04-09T01:26:37.218Z,8.00
2018-04-09T01:29:05.831Z,7.90
2018-04-09T01:31:34.409Z,7.80
2018-04-09T01:34:03.008Z,7.70
2018-04-09T01:36:32.367Z,7.70
2018-04-09T01:39:00.962Z,7.70
2018-04-09T01:41:29.556Z,7.70
2018-04-09T01:43:58.112Z,7.70
2018-04-09T01:46:26.715Z,7.70
2018-04-09T01:48:58.455Z,7.70
2018-04-09T01:51:27.035Z,7.60
2018-04-09T01:53:55.586Z,7.60
2018-04-09T01:56:24.181Z,7.60
2018-04-09T01:58:52.743Z,7.60
2018-04-09T02:01:22.084Z,7.50
2018-04-09T02:03:50.626Z,7.50
2018-04-09T02:06:19.228Z,7.40
2018-04-09T02:08:47.847Z,7.40
2018-04-09T02:11:16.408Z,7.40
2018-04-09T02:13:44.994Z,7.40
2018-04-09T02:16:13.614Z,7.40
2018-04-09T02:18:42.225Z,7.30
2018-04-09T02:21:11.597Z,7.10
2018-04-09T02:23:40.190Z,7.10
2018-04-09T02:26:08.766Z,7.20
2018-04-09T02:28:37.347Z,7.20
2018-04-09T02:31:05.930Z,7.20
2018-04-09T02:33:34.503Z,7.20
2018-04-09T02:36:03.065Z,7.20
2018-04-09T02:38:31.612Z,7.30
2018-04-09T02:41:00.223Z,7.30
2018-04-09T02:43:28.824Z,7.20
2018-04-09T02:45:57.412Z,7.20
2018-04-09T02:48:25.981Z,7.10
2018-04-09T02:50:54.544Z,7.10
2018-04-09T02:53:23.147Z,7.10
2018-04-09T02:55:51.721Z,7.00
2018-04-09T02:58:20.367Z,7.00
2018-04-09T03:00:49.522Z,6.90
2018-04-09T03:03:17.900Z,6.80
2018-04-09T03:05:46.271Z,6.80
2018-04-09T03:08:14.868Z,6.70
2018-04-09T03:10:43.467Z,6.80
2018-04-09T03:13:12.032Z,6.80
2018-04-09T03:15:40.602Z,6.80
2018-04-09T03:18:09.196Z,6.70
2018-04-09T03:20:37.756Z,6.70
2018-04-09T03:23:06.348Z,6.70
2018-04-09T03:25:34.910Z,6.70
2018-04-09T03:28:03.507Z,6.70
2018-04-09T03:30:32.092Z,6.70
2018-04-09T03:33:00.711Z,6.70
2018-04-09T03:35:29.278Z,6.70
2018-04-09T03:37:57.863Z,6.70
2018-04-09T03:40:26.448Z,6.70
2018-04-09T03:42:55.992Z,6.70
2018-04-09T03:45:25.487Z,6.60
2018-04-09T03:47:54.051Z,6.60
2018-04-09T03:50:22.671Z,6.60
2018-04-09T03:52:52.026Z,6.50
2018-04-09T03:55:20.604Z,6.50
2018-04-09T03:57:49.256Z,6.50
2018-04-09T04:00:17.856Z,6.50
2018-04-09T04:02:46.468Z,6.50
2018-04-09T04:05:15.205Z,6.50
2018-04-09T04:07:43.816Z,6.40
2018-04-09T04:10:12.432Z,6.30
2018-04-09T04:12:41.003Z,6.30
2018-04-09T04:15:09.608Z,6.30
2018-04-09T04:17:49.286Z,6.30
2018-04-09T04:20:29.806Z,6.30
2018-04-09T04:22:58.222Z,6.30
2018-04-09T04:25:26.841Z,6.30
2018-04-09T04:27:55.449Z,6.30
2018-04-09T04:30:24.099Z,6.20
2018-04-09T04:32:52.700Z,6.20
2018-04-09T04:35:20.676Z,6.20
2018-04-09T04:37:49.258Z,6.20
2018-04-09T04:40:17.877Z,6.20
2018-04-09T04:42:52.008Z,6.20
2018-04-09T04:45:21.140Z,6.10
2018-04-09T04:47:49.937Z,6.10
2018-04-09T04:50:18.535Z,6.10
2018-04-09T04:52:47.126Z,6.20
2018-04-09T04:55:15.721Z,6.30
2018-04-09T04:57:44.247Z,6.40
2018-04-09T05:00:12.858Z,6.40
2018-04-09T05:02:41.451Z,6.40
2018-04-09T05:05:09.756Z,6.50
2018-04-09T05:07:39.128Z,6.50
2018-04-09T05:10:07.686Z,6.50
2018-04-09T05:12:36.310Z,6.50
2018-04-09T05:15:04.908Z,6.60
2018-04-09T05:17:34.299Z,6.70
2018-04-09T05:20:02.902Z,6.70
2018-04-09T05:22:31.543Z,6.80
2018-04-09T05:25:00.174Z,6.90
2018-04-09T05:27:28.760Z,7.00
2018-04-09T05:29:58.153Z,7.20
2018-04-09T05:32:27.489Z,7.30
2018-04-09T05:34:56.106Z,7.30
2018-04-09T05:37:24.699Z,7.40
2018-04-09T05:39:53.291Z,7.50
2018-04-09T05:42:21.856Z,7.50
2018-04-09T05:44:50.451Z,7.60
2018-04-09T05:47:19.066Z,7.70
2018-04-09T05:49:48.395Z,7.80
2018-04-09T05:52:16.992Z,7.80
2018-04-09T05:54:45.591Z,7.90
2018-04-09T05:57:13.995Z,7.90
2018-04-09T05:59:42.594Z,8.00
2018-04-09T06:02:11.751Z,8.10
2018-04-09T06:04:40.320Z,8.10
2018-04-09T06:07:08.956Z,8.30
2018-04-09T06:09:38.370Z,8.50
2018-04-09T06:12:06.908Z,8.50
2018-04-09T06:14:35.499Z,8.50
2018-04-09T06:17:04.091Z,8.50
2018-04-09T06:19:32.655Z,8.60
2018-04-09T06:22:01.284Z,8.70
2018-04-09T06:24:39.592Z,8.70
2018-04-09T06:27:08.925Z,8.90
2018-04-09T06:29:37.482Z,8.90
2018-04-09T06:32:06.123Z,9.00
2018-04-09T06:34:34.744Z,9.10
2018-04-09T06:37:03.865Z,9.10
2018-04-09T06:39:32.270Z,9.10
2018-04-09T06:42:00.874Z,9.20
2018-04-09T06:44:29.283Z,9.30
2018-04-09T06:46:57.627Z,9.40
2018-04-09T06:49:26.220Z,9.50
2018-04-09T06:51:54.842Z,9.70
2018-04-09T06:54:22.906Z,9.70
2018-04-09T06:56:51.512Z,9.70
2018-04-09T06:59:20.114Z,9.80
2018-04-09T07:01:48.528Z,9.90
2018-04-09T07:04:18.091Z,10.00
2018-04-09T07:06:46.731Z,10.10
2018-04-09T07:09:16.092Z,10.30
2018-04-09T07:11:44.683Z,10.30
2018-04-09T07:14:13.297Z,10.40
2018-04-09T07:16:42.444Z,10.60
2018-04-09T07:19:10.842Z,10.60
2018-04-09T07:21:39.441Z,10.80
2018-04-09T07:24:08.054Z,10.90
2018-04-09T07:26:37.456Z,11.10
2018-04-09T07:29:06.080Z,11.10
2018-04-09T07:31:34.735Z,11.30
2018-04-09T07:34:03.310Z,11.40
2018-04-09T07:36:32.018Z,11.40
2018-04-09T07:39:00.740Z,11.60
2018-04-09T07:41:29.371Z,11.70
2018-04-09T07:44:18.693Z,11.70
2018-04-09T07:46:47.340Z,11.70
2018-04-09T07:49:16.294Z,11.90
2018-04-09T07:51:45.040Z,12.10
2018-04-09T07:54:13.714Z,12.40
2018-04-09T07:56:42.347Z,12.50
2018-04-09T07:59:11.680Z,12.70
2018-04-09T08:01:40.504Z,13.00
2018-04-09T08:04:09.100Z,13.10
2018-04-09T08:06:37.770Z,13.30
2018-04-09T08:09:05.739Z,13.40
2018-04-09T08:11:34.336Z,13.70
2018-04-09T08:14:02.910Z,14.00
2018-04-09T08:16:31.523Z,14.10
2018-04-09T08:19:00.110Z,13.90
2018-04-09T08:21:28.733Z,14.20
2018-04-09T08:23:57.389Z,14.40
2018-04-09T08:26:26.523Z,14.80
2018-04-09T08:28:54.929Z,14.80
2018-04-09T08:31:23.507Z,15.00
2018-04-09T08:33:52.121Z,15.10
2018-04-09T08:36:20.703Z,15.10
2018-04-09T08:38:49.302Z,15.20
2018-04-09T08:41:18.681Z,15.50
2018-04-09T08:43:47.279Z,15.50
2018-04-09T08:46:15.890Z,15.70
2018-04-09T08:48:44.498Z,15.90
2018-04-09T08:51:13.103Z,16.00
2018-04-09T08:53:41.718Z,16.10
2018-04-09T08:56:11.078Z,16.30
2018-04-09T08:58:39.679Z,16.30
2018-04-09T09:01:08.297Z,16.50
2018-04-09T09:03:37.699Z,16.50
2018-04-09T09:06:07.066Z,16.50
2018-04-09T09:08:35.719Z,16.50
2018-04-09T09:11:04.344Z,16.70
2018-04-09T09:13:33.033Z,16.90
2018-04-09T09:16:01.696Z,17.00
2018-04-09T09:18:30.275Z,17.00
2018-04-09T09:21:06.673Z,16.90
2018-04-09T09:23:35.268Z,17.00
2018-04-09T09:26:04.765Z,17.10
2018-04-09T09:28:34.165Z,17.20
2018-04-09T09:31:02.801Z,17.20
2018-04-09T09:33:31.393Z,17.20
2018-04-09T09:36:00.097Z,17.20
2018-04-09T09:38:28.755Z,17.40
2018-04-09T09:40:57.431Z,17.40
2018-04-09T09:43:26.105Z,17.60
2018-04-09T09:45:54.857Z,17.80
2018-04-09T09:48:23.491Z,17.90
2018-04-09T09:50:52.280Z,18.10
2018-04-09T09:53:20.925Z,18.30
2018-04-09T09:55:49.558Z,18.60
2018-04-09T09:58:19.103Z,19.20
2018-04-09T10:00:47.506Z,19.20
2018-04-09T10:03:22.258Z,19.50
2018-04-09T10:05:50.889Z,19.50
2018-04-09T10:08:20.284Z,19.50
2018-04-09T10:10:49.019Z,19.60
2018-04-09T10:13:17.594Z,19.70
2018-04-09T10:15:47.053Z,19.90
2018-04-09T10:18:15.727Z,19.90
2018-04-09T10:20:44.504Z,20.00
2018-04-09T10:23:14.076Z,20.20
2018-04-09T10:25:43.549Z,20.90
2018-04-09T10:28:12.356Z,20.90
2018-04-09T10:30:40.925Z,20.90
2018-04-09T10:33:09.561Z,20.90
2018-04-09T10:35:38.307Z,20.90
2018-04-09T10:38:06.897Z,21.00
2018-04-09T10:40:36.435Z,20.70
2018-04-09T10:43:05.131Z,20.60
2018-04-09T10:45:33.705Z,20.60
2018-04-09T10:48:02.294Z,20.50
2018-04-09T10:50:30.885Z,20.60
2018-04-09T10:52:59.468Z,20.60
2018-04-09T10:55:28.047Z,20.90
2018-04-09T10:57:56.638Z,21.50
2018-04-09T11:00:25.234Z,22.70
2018-04-09T11:02:53.840Z,23.30
2018-04-09T11:05:22.452Z,23.60
2018-04-09T11:07:51.791Z,23.90
2018-04-09T11:10:20.523Z,23.80
2018-04-09T11:12:49.092Z,24.70
2018-04-09T11:15:19.704Z,25.10
2018-04-09T11:17:48.520Z,25.50
2018-04-09T11:20:18.333Z,24.70
2018-04-09T11:22:47.003Z,24.10
2018-04-09T11:25:15.597Z,24.50
2018-04-09T11:27:45.207Z,24.30
2018-04-09T11:30:13.810Z,24.40
2018-04-09T11:32:43.154Z,23.80
2018-04-09T11:35:11.796Z,23.70
2018-04-09T11:37:40.372Z,23.90
2018-04-09T11:40:08.953Z,24.10
2018-04-09T11:42:37.576Z,23.90
2018-04-09T11:45:06.160Z,24.20
2018-04-09T11:47:34.712Z,23.50
2018-04-09T11:50:03.224Z,23.30
2018-04-09T11:52:31.836Z,23.40
2018-04-09T11:55:00.335Z,23.90
2018-04-09T11:57:28.928Z,24.60
2018-04-09T11:59:58.526Z,25.30
2018-04-09T12:02:27.122Z,26.40
2018-04-09T12:04:55.678Z,27.10
2018-04-09T12:07:24.277Z,28.00
2018-04-09T12:09:52.845Z,26.90
2018-04-09T12:12:21.400Z,26.50
2018-04-09T12:14:49.777Z,25.50
2018-04-09T12:17:18.368Z,25.10
2018-04-09T12:19:46.964Z,25.30
2018-04-09T12:22:15.582Z,25.00
2018-04-09T12:24:44.158Z,24.80
2018-04-09T12:27:12.773Z,24.40
2018-04-09T12:29:42.137Z,25.70
2018-04-09T12:32:10.783Z,25.60
2018-04-09T12:34:39.372Z,26.50
2018-04-09T12:37:07.963Z,27.50
2018-04-09T12:39:36.529Z,27.60
2018-04-09T12:42:05.102Z,28.20
2018-04-09T12:44:33.678Z,26.70
2018-04-09T12:47:03.025Z,25.80
2018-04-09T12:49:32.353Z,26.00
2018-04-09T12:52:00.958Z,26.00
2018-04-09T12:54:30.341Z,26.50
2018-04-09T12:56:58.897Z,26.40
2018-04-09T12:59:27.475Z,26.40
2018-04-09T13:01:56.178Z,26.00
2018-04-09T13:04:24.831Z,26.20
2018-04-09T13:06:53.449Z,26.10
2018-04-09T13:09:22.057Z,25.70
2018-04-09T13:11:50.680Z,25.90
2018-04-09T13:14:19.331Z,26.10
2018-04-09T13:16:48.789Z,26.40
2018-04-09T13:19:17.375Z,26.30
2018-04-09T13:21:45.969Z,26.30
2018-04-09T13:24:14.582Z,26.40
2018-04-09T13:26:43.179Z,25.90
2018-04-09T13:29:12.509Z,25.10
2018-04-09T13:31:41.133Z,25.10
2018-04-09T13:34:09.701Z,25.30
2018-04-09T13:36:38.282Z,25.70
2018-04-09T13:39:06.614Z,25.50
2018-04-09T13:41:35.192Z,25.60
2018-04-09T13:44:04.550Z,25.40
2018-04-09T13:46:34.877Z,25.30
2018-04-09T13:49:03.658Z,25.30
2018-04-09T13:51:32.284Z,25.00
2018-04-09T13:54:05.820Z,25.30
2018-04-09T13:56:34.458Z,25.30
2018-04-09T13:59:03.870Z,25.40
2018-04-09T14:01:33.237Z,25.10
2018-04-09T14:04:01.835Z,25.10
2018-04-09T14:06:31.966Z,24.40
2018-04-09T14:09:01.330Z,24.30
2018-04-09T14:11:29.878Z,24.30
2018-04-09T14:13:58.467Z,24.10
2018-04-09T14:16:27.008Z,24.20
2018-04-09T14:18:55.609Z,23.90
2018-04-09T14:21:24.994Z,24.00
2018-04-09T14:23:53.593Z,24.00
2018-04-09T14:26:22.992Z,24.20
2018-04-09T14:28:52.395Z,24.10
2018-04-09T14:31:20.987Z,24.10
2018-04-09T14:33:50.345Z,23.90
2018-04-09T14:36:20.711Z,23.90
2018-04-09T14:38:50.035Z,23.40
2018-04-09T14:41:18.650Z,23.40
2018-04-09T14:43:47.203Z,23.30
2018-04-09T14:46:15.782Z,23.20
2018-04-09T14:48:44.401Z,23.10
2018-04-09T14:51:12.996Z,23.00
2018-04-09T14:53:41.584Z,23.00
2018-04-09T14:56:10.190Z,22.90
2018-04-09T14:58:39.540Z,23.00
2018-04-09T15:01:08.228Z,23.00
2018-04-09T15:03:36.839Z,23.00
2018-04-09T15:06:05.716Z,22.90
2018-04-09T15:08:34.266Z,22.80
2018-04-09T15:11:02.830Z,22.80
2018-04-09T15:13:32.196Z,23.00
2018-04-09T15:16:00.751Z,23.00
2018-04-09T15:18:29.366Z,23.20
2018-04-09T15:20:58.530Z,23.50
2018-04-09T15:23:27.111Z,23.60
2018-04-09T15:25:55.693Z,23.70
2018-04-09T15:28:24.277Z,23.90
2018-04-09T15:30:53.092Z,24.10
2018-04-09T15:33:21.797Z,24.20
2018-04-09T15:35:50.354Z,24.10
2018-04-09T15:38:18.970Z,23.90
2018-04-09T15:40:47.521Z,23.80
2018-04-09T15:43:16.110Z,23.70
2018-04-09T15:45:44.732Z,23.90
2018-04-09T15:48:14.068Z,23.60
2018-04-09T15:50:42.643Z,23.60
2018-04-09T15:53:11.213Z,23.60
2018-04-09T15:55:39.874Z,23.30
2018-04-09T15:58:08.476Z,23.00
2018-04-09T16:00:37.784Z,22.90
2018-04-09T16:03:06.181Z,22.90
2018-04-09T16:05:34.790Z,22.90
2018-04-09T16:08:03.399Z,22.80
2018-04-09T16:10:32.021Z,22.70
2018-04-09T16:13:00.605Z,22.70
2018-04-09T16:15:29.265Z,22.60
2018-04-09T16:18:04.826Z,22.70
2018-04-09T16:20:34.156Z,22.70
2018-04-09T16:23:02.759Z,22.60
2018-04-09T16:25:31.370Z,22.70
2018-04-09T16:28:00.006Z,22.50
2018-04-09T16:30:28.605Z,22.50
2018-04-09T16:32:57.185Z,22.30
2018-04-09T16:35:25.770Z,22.10
2018-04-09T16:37:54.536Z,22.00
2018-04-09T16:40:23.257Z,21.90
2018-04-09T16:42:51.864Z,21.90
2018-04-09T16:45:20.498Z,21.80
2018-04-09T16:47:52.236Z,21.70
2018-04-09T16:50:20.636Z,21.60
2018-04-09T16:52:49.283Z,21.60
2018-04-09T16:55:18.637Z,21.40
2018-04-09T16:57:48.006Z,21.40
2018-04-09T17:00:16.660Z,21.40
2018-04-09T17:02:45.240Z,21.30
2018-04-09T17:05:13.825Z,21.20
2018-04-09T17:07:42.464Z,21.10
2018-04-09T17:10:11.079Z,20.90
2018-04-09T17:12:40.306Z,20.70
2018-04-09T17:15:09.004Z,20.70
2018-04-09T17:17:52.732Z,20.40
2018-04-09T17:20:22.114Z,20.20
2018-04-09T17:22:50.750Z,20.20
2018-04-09T17:25:20.407Z,20.10
2018-04-09T17:27:53.278Z,19.90
2018-04-09T17:30:21.665Z,19.70
2018-04-09T17:32:50.407Z,19.50
2018-04-09T17:35:23.078Z,19.40
2018-04-09T17:37:57.985Z,19.10
2018-04-09T17:40:26.648Z,18.90
2018-04-09T17:42:55.251Z,18.70
2018-04-09T17:45:24.701Z,18.40
2018-04-09T17:47:53.313Z,18.40
2018-04-09T17:50:21.961Z,18.30
2018-04-09T17:52:51.476Z,18.00
2018-04-09T17:55:20.899Z,18.00
2018-04-09T17:57:49.510Z,17.90
2018-04-09T18:00:18.210Z,17.90
2018-04-09T18:02:47.597Z,17.60
2018-04-09T18:05:16.192Z,17.60
2018-04-09T18:07:44.813Z,17.50
2018-04-09T18:10:15.241Z,17.40
2018-04-09T18:12:43.871Z,17.40
2018-04-09T18:15:14.522Z,17.30
2018-04-09T18:17:43.909Z,17.00
2018-04-09T18:20:12.640Z,17.00
2018-04-09T18:22:41.218Z,17.00
2018-04-09T18:25:33.663Z,16.90
2018-04-09T18:28:02.324Z,16.90
2018-04-09T18:30:31.841Z,16.90
2018-04-09T18:33:00.496Z,16.90
2018-04-09T18:35:29.086Z,16.90
2018-04-09T18:38:00.516Z,16.80
2018-04-09T18:40:34.116Z,16.80
2018-04-09T18:43:02.704Z,16.70
2018-04-09T18:45:36.706Z,16.70
2018-04-09T18:48:05.345Z,16.60
2018-04-09T18:50:33.975Z,16.50
2018-04-09T18:53:02.320Z,16.40
2018-04-09T18:55:31.696Z,16.30
2018-04-09T18:58:01.096Z,16.20
2018-04-09T19:00:30.477Z,16.10
2018-04-09T19:02:59.122Z,16.10
2018-04-09T19:05:27.719Z,16.00
2018-04-09T19:07:56.322Z,15.90
2018-04-09T19:10:25.006Z,15.80
2018-04-09T19:12:53.387Z,15.80
2018-04-09T19:15:22.979Z,15.80
2018-04-09T19:17:52.742Z,15.70
2018-04-09T19:20:21.638Z,15.60
2018-04-09T19:22:50.221Z,15.50
2018-04-09T19:25:20.439Z,15.50
2018-04-09T19:28:01.304Z,15.40
2018-04-09T19:30:30.030Z,15.40
2018-04-09T19:32:58.697Z,15.50
2018-04-09T19:59:47.645Z,14.80
2018-04-09T20:02:19.060Z,14.60
2018-04-09T20:04:47.710Z,14.50
2018-04-09T20:07:38.812Z,14.40
2018-04-09T20:10:18.382Z,14.40
2018-04-09T20:12:47.042Z,14.30
2018-04-09T20:15:16.036Z,14.20
2018-04-09T20:17:44.868Z,14.10
2018-04-09T20:20:13.520Z,14.00
2018-04-09T20:22:42.984Z,13.80
2018-04-09T20:25:13.384Z,13.80
2018-04-09T20:27:42.053Z,13.70
2018-04-09T20:30:10.724Z,13.60
2018-04-09T20:32:40.270Z,13.40
2018-04-09T20:35:09.743Z,13.40
2018-04-09T20:37:39.192Z,13.30
2018-04-09T20:40:08.140Z,13.20
2018-04-09T20:42:37.514Z,13.20
2018-04-09T20:45:06.111Z,13.10
2018-04-09T20:47:35.527Z,13.00
2018-04-09T20:50:03.862Z,13.00
2018-04-09T20:52:32.472Z,12.90
2018-04-09T20:55:01.077Z,12.90
2018-04-09T20:57:29.947Z,12.80
2018-04-09T21:00:00.624Z,12.80
2018-04-09T21:02:29.263Z,12.80
2018-04-09T21:04:57.888Z,12.80
2018-04-09T21:07:26.524Z,12.80
2018-04-09T21:09:55.108Z,12.70
2018-04-09T21:12:23.781Z,12.60
2018-04-09T21:14:54.379Z,12.50
2018-04-09T21:17:23.023Z,12.50
2018-04-09T21:19:52.397Z,12.40
2018-04-09T21:22:20.998Z,12.40
2018-04-09T21:24:49.743Z,12.30
2018-04-09T21:27:19.251Z,12.20
2018-04-09T21:29:47.888Z,12.30
2018-04-09T21:32:17.289Z,12.30
2018-04-09T21:34:46.720Z,12.20
2018-04-09T21:37:15.378Z,12.20
2018-04-09T21:39:45.644Z,12.10
2018-04-09T21:42:14.273Z,12.00
2018-04-09T21:44:43.669Z,11.90
2018-04-09T21:47:12.307Z,11.90
2018-04-09T21:49:41.156Z,11.90
2018-04-09T21:52:09.635Z,11.80
2018-04-09T21:54:39.037Z,11.60
2018-04-09T21:57:07.659Z,11.60
2018-04-09T21:59:36.417Z,11.60
2018-04-09T22:02:05.089Z,11.60
2018-04-09T22:04:33.681Z,11.50
2018-04-09T22:07:03.053Z,11.50
2018-04-09T22:09:31.633Z,11.50
2018-04-09T22:12:00.255Z,11.50
2018-04-09T22:14:29.646Z,11.40
2018-04-09T22:16:58.262Z,11.40
2018-04-09T22:19:26.886Z,11.30
2018-04-09T22:21:55.451Z,11.30
2018-04-09T22:24:24.072Z,11.30
2018-04-09T22:26:52.818Z,11.30
2018-04-09T22:29:21.459Z,11.30
2018-04-09T22:31:50.097Z,11.30
2018-04-09T22:34:18.887Z,11.20
2018-04-09T22:36:47.508Z,11.20
2018-04-09T22:39:16.125Z,11.30
2018-04-09T22:41:45.514Z,11.30
2018-04-09T22:44:14.917Z,11.20
2018-04-09T22:46:44.290Z,11.30
2018-04-09T22:49:12.869Z,11.20
2018-04-09T22:51:41.496Z,11.20
2018-04-09T22:54:10.828Z,11.20
2018-04-09T22:56:39.229Z,11.20
2018-04-09T22:59:07.824Z,11.20
2018-04-09T23:01:36.416Z,11.20
2018-04-09T23:04:05.021Z,11.20
2018-04-09T23:06:34.359Z,11.20
2018-04-09T23:09:02.949Z,11.20
2018-04-09T23:11:31.541Z,11.20
2018-04-09T23:14:00.118Z,11.30
2018-04-09T23:16:28.714Z,11.30
2018-04-09T23:18:57.342Z,11.20
2018-04-09T23:21:26.537Z,11.20
2018-04-09T23:23:55.715Z,11.20
2018-04-09T23:26:24.353Z,11.20
2018-04-09T23:28:52.979Z,11.20
2018-04-09T23:31:21.540Z,11.20
2018-04-09T23:33:50.116Z,11.20
2018-04-09T23:36:18.733Z,11.20
2018-04-09T23:38:47.344Z,11.10
2018-04-09T23:41:16.669Z,11.00
2018-04-09T23:43:45.231Z,11.00
2018-04-09T23:46:14.641Z,10.90
2018-04-09T23:48:43.355Z,10.90
2018-04-09T23:51:11.956Z,10.90
2018-04-09T23:53:40.572Z,10.90
2018-04-09T23:56:09.997Z,10.80
2018-04-09T23:58:38.652Z,10.80
